sensor_id;sensor_type;location;lat;lon;timestamp;P1;durP1;ratioP1;P2;durP2;ratioP2
22250;SDS011;59348;52.158;5.588;2023-03-01T00:00:19;11.00;;;5.80;;
22250;SDS011;59348;52.158;5.588;2023-03-01T00:02:46;9.85;;;5.88;;
22250;SDS011;59348;52.158;5.588;2023-03-01T00:05:14;9.40;;;5.57;;
22250;SDS011;59348;52.158;5.588;2023-03-01T00:07:42;9.23;;;5.75;;
22250;SDS011;59348;52.158;5.588;2023-03-01T00:10:10;8.43;;;5.70;;
22250;SDS011;59348;52.158;5.588;2023-03-01T00:12:37;10.77;;;5.88;;
22250;SDS011;59348;52.158;5.588;2023-03-01T00:15:05;9.63;;;5.70;;
22250;SDS011;59348;52.158;5.588;2023-03-01T00:17:32;10.38;;;5.47;;
22250;SDS011;59348;52.158;5.588;2023-03-01T00:20:00;11.57;;;5.40;;
22250;SDS011;59348;52.158;5.588;2023-03-01T00:22:27;12.70;;;5.90;;
22250;SDS011;59348;52.158;5.588;2023-03-01T00:24:56;11.32;;;5.78;;
22250;SDS011;59348;52.158;5.588;2023-03-01T00:27:23;10.43;;;5.93;;
22250;SDS011;59348;52.158;5.588;2023-03-01T00:29:50;12.07;;;6.22;;
22250;SDS011;59348;52.158;5.588;2023-03-01T00:32:19;12.27;;;7.03;;
22250;SDS011;59348;52.158;5.588;2023-03-01T00:34:46;9.98;;;5.80;;
22250;SDS011;59348;52.158;5.588;2023-03-01T00:37:19;9.82;;;5.90;;
22250;SDS011;59348;52.158;5.588;2023-03-01T00:39:47;10.93;;;6.43;;
22250;SDS011;59348;52.158;5.588;2023-03-01T00:42:16;9.50;;;5.70;;
22250;SDS011;59348;52.158;5.588;2023-03-01T00:44:43;11.85;;;6.78;;
22250;SDS011;59348;52.158;5.588;2023-03-01T00:47:11;12.00;;;6.35;;
22250;SDS011;59348;52.158;5.588;2023-03-01T00:49:38;14.50;;;6.72;;
22250;SDS011;59348;52.158;5.588;2023-03-01T00:52:06;10.77;;;6.68;;
22250;SDS011;59348;52.158;5.588;2023-03-01T00:54:33;12.68;;;6.70;;
22250;SDS011;59348;52.158;5.588;2023-03-01T00:57:01;13.68;;;6.82;;
22250;SDS011;59348;52.158;5.588;2023-03-01T00:59:29;13.55;;;6.85;;
22250;SDS011;59348;52.158;5.588;2023-03-01T01:01:56;12.88;;;6.45;;
22250;SDS011;59348;52.158;5.588;2023-03-01T01:04:25;10.95;;;6.60;;
22250;SDS011;59348;52.158;5.588;2023-03-01T01:06:52;11.55;;;6.07;;
22250;SDS011;59348;52.158;5.588;2023-03-01T01:09:19;12.05;;;6.70;;
22250;SDS011;59348;52.158;5.588;2023-03-01T01:11:47;12.88;;;6.60;;
22250;SDS011;59348;52.158;5.588;2023-03-01T01:14:15;12.43;;;6.63;;
22250;SDS011;59348;52.158;5.588;2023-03-01T01:16:44;8.85;;;6.00;;
22250;SDS011;59348;52.158;5.588;2023-03-01T01:19:12;11.80;;;6.63;;
22250;SDS011;59348;52.158;5.588;2023-03-01T01:21:39;10.18;;;6.18;;
22250;SDS011;59348;52.158;5.588;2023-03-01T01:24:08;14.35;;;6.38;;
22250;SDS011;59348;52.158;5.588;2023-03-01T01:26:35;13.80;;;6.72;;
22250;SDS011;59348;52.158;5.588;2023-03-01T01:29:03;11.73;;;6.95;;
22250;SDS011;59348;52.158;5.588;2023-03-01T01:31:31;11.38;;;6.55;;
22250;SDS011;59348;52.158;5.588;2023-03-01T01:34:00;14.65;;;6.82;;
22250;SDS011;59348;52.158;5.588;2023-03-01T01:36:28;16.77;;;6.90;;
22250;SDS011;59348;52.158;5.588;2023-03-01T01:38:55;10.77;;;6.22;;
22250;SDS011;59348;52.158;5.588;2023-03-01T01:41:23;11.18;;;6.70;;
22250;SDS011;59348;52.158;5.588;2023-03-01T01:46:32;11.07;;;6.15;;
22250;SDS011;59348;52.158;5.588;2023-03-01T01:49:03;13.32;;;7.00;;
22250;SDS011;59348;52.158;5.588;2023-03-01T01:51:32;9.13;;;6.07;;
22250;SDS011;59348;52.158;5.588;2023-03-01T01:54:05;11.68;;;6.88;;
22250;SDS011;59348;52.158;5.588;2023-03-01T01:56:33;11.15;;;6.35;;
22250;SDS011;59348;52.158;5.588;2023-03-01T01:59:00;10.90;;;7.15;;
22250;SDS011;59348;52.158;5.588;2023-03-01T02:01:28;10.80;;;6.45;;
22250;SDS011;59348;52.158;5.588;2023-03-01T02:03:55;12.27;;;6.38;;
22250;SDS011;59348;52.158;5.588;2023-03-01T02:06:26;10.43;;;6.47;;
22250;SDS011;59348;52.158;5.588;2023-03-01T02:08:55;10.52;;;6.43;;
22250;SDS011;59348;52.158;5.588;2023-03-01T02:11:24;12.32;;;6.72;;
22250;SDS011;59348;52.158;5.588;2023-03-01T02:13:52;12.13;;;7.10;;
22250;SDS011;59348;52.158;5.588;2023-03-01T02:16:20;11.25;;;6.30;;
22250;SDS011;59348;52.158;5.588;2023-03-01T02:18:47;10.60;;;6.63;;
22250;SDS011;59348;52.158;5.588;2023-03-01T02:21:17;11.13;;;6.65;;
22250;SDS011;59348;52.158;5.588;2023-03-01T02:23:48;15.60;;;6.95;;
22250;SDS011;59348;52.158;5.588;2023-03-01T02:26:18;14.63;;;7.93;;
22250;SDS011;59348;52.158;5.588;2023-03-01T02:28:47;16.35;;;8.63;;
22250;SDS011;59348;52.158;5.588;2023-03-01T02:31:16;22.38;;;9.25;;
22250;SDS011;59348;52.158;5.588;2023-03-01T02:33:57;18.27;;;8.85;;
22250;SDS011;59348;52.158;5.588;2023-03-01T02:36:26;11.85;;;7.07;;
22250;SDS011;59348;52.158;5.588;2023-03-01T02:38:56;12.82;;;7.50;;
22250;SDS011;59348;52.158;5.588;2023-03-01T02:41:24;10.57;;;6.65;;
22250;SDS011;59348;52.158;5.588;2023-03-01T02:43:54;15.13;;;7.47;;
22250;SDS011;59348;52.158;5.588;2023-03-01T02:46:22;11.75;;;6.72;;
22250;SDS011;59348;52.158;5.588;2023-03-01T02:48:51;15.07;;;7.63;;
22250;SDS011;59348;52.158;5.588;2023-03-01T02:51:22;12.45;;;6.97;;
22250;SDS011;59348;52.158;5.588;2023-03-01T02:53:54;10.93;;;6.53;;
22250;SDS011;59348;52.158;5.588;2023-03-01T02:56:23;9.35;;;6.70;;
22250;SDS011;59348;52.158;5.588;2023-03-01T02:58:50;12.82;;;7.00;;
22250;SDS011;59348;52.158;5.588;2023-03-01T03:01:20;10.23;;;6.57;;
22250;SDS011;59348;52.158;5.588;2023-03-01T03:03:47;9.48;;;6.32;;
22250;SDS011;59348;52.158;5.588;2023-03-01T03:06:14;12.80;;;7.13;;
22250;SDS011;59348;52.158;5.588;2023-03-01T03:08:41;10.32;;;6.25;;
22250;SDS011;59348;52.158;5.588;2023-03-01T03:11:09;8.63;;;6.15;;
22250;SDS011;59348;52.158;5.588;2023-03-01T03:13:36;9.02;;;6.15;;
22250;SDS011;59348;52.158;5.588;2023-03-01T03:16:12;12.18;;;6.28;;
22250;SDS011;59348;52.158;5.588;2023-03-01T03:18:41;10.60;;;6.32;;
22250;SDS011;59348;52.158;5.588;2023-03-01T03:21:09;9.05;;;5.80;;
22250;SDS011;59348;52.158;5.588;2023-03-01T03:23:36;10.95;;;6.60;;
22250;SDS011;59348;52.158;5.588;2023-03-01T03:26:04;10.57;;;6.13;;
22250;SDS011;59348;52.158;5.588;2023-03-01T03:28:32;11.82;;;6.38;;
22250;SDS011;59348;52.158;5.588;2023-03-01T03:30:59;9.00;;;5.40;;
22250;SDS011;59348;52.158;5.588;2023-03-01T03:33:28;9.80;;;6.07;;
22250;SDS011;59348;52.158;5.588;2023-03-01T03:35:57;10.10;;;5.90;;
22250;SDS011;59348;52.158;5.588;2023-03-01T03:38:24;11.45;;;6.20;;
22250;SDS011;59348;52.158;5.588;2023-03-01T03:40:52;10.73;;;6.50;;
22250;SDS011;59348;52.158;5.588;2023-03-01T03:43:27;11.70;;;6.72;;
22250;SDS011;59348;52.158;5.588;2023-03-01T03:45:54;10.95;;;6.57;;
22250;SDS011;59348;52.158;5.588;2023-03-01T03:48:23;10.88;;;5.95;;
22250;SDS011;59348;52.158;5.588;2023-03-01T03:50:51;11.95;;;6.28;;
22250;SDS011;59348;52.158;5.588;2023-03-01T03:53:20;9.75;;;6.40;;
22250;SDS011;59348;52.158;5.588;2023-03-01T03:55:48;12.32;;;6.15;;
22250;SDS011;59348;52.158;5.588;2023-03-01T03:58:17;8.82;;;5.88;;
22250;SDS011;59348;52.158;5.588;2023-03-01T04:00:46;8.23;;;6.00;;
22250;SDS011;59348;52.158;5.588;2023-03-01T04:03:14;8.65;;;5.80;;
22250;SDS011;59348;52.158;5.588;2023-03-01T04:05:43;10.02;;;6.13;;
22250;SDS011;59348;52.158;5.588;2023-03-01T04:08:11;9.07;;;5.82;;
22250;SDS011;59348;52.158;5.588;2023-03-01T04:10:40;9.32;;;6.10;;
22250;SDS011;59348;52.158;5.588;2023-03-01T04:13:09;10.82;;;6.35;;
22250;SDS011;59348;52.158;5.588;2023-03-01T04:15:37;10.85;;;6.30;;
22250;SDS011;59348;52.158;5.588;2023-03-01T04:18:05;10.82;;;6.65;;
22250;SDS011;59348;52.158;5.588;2023-03-01T04:20:33;11.35;;;6.55;;
22250;SDS011;59348;52.158;5.588;2023-03-01T04:23:02;12.63;;;6.60;;
22250;SDS011;59348;52.158;5.588;2023-03-01T04:25:36;10.02;;;6.50;;
22250;SDS011;59348;52.158;5.588;2023-03-01T04:28:05;9.50;;;6.10;;
22250;SDS011;59348;52.158;5.588;2023-03-01T04:30:32;9.75;;;6.45;;
22250;SDS011;59348;52.158;5.588;2023-03-01T04:33:01;10.55;;;6.25;;
22250;SDS011;59348;52.158;5.588;2023-03-01T04:35:29;11.20;;;6.60;;
22250;SDS011;59348;52.158;5.588;2023-03-01T04:37:56;10.65;;;6.90;;
22250;SDS011;59348;52.158;5.588;2023-03-01T04:40:23;11.85;;;7.03;;
22250;SDS011;59348;52.158;5.588;2023-03-01T04:42:51;11.27;;;6.63;;
22250;SDS011;59348;52.158;5.588;2023-03-01T04:45:20;10.88;;;6.57;;
22250;SDS011;59348;52.158;5.588;2023-03-01T04:47:47;10.52;;;6.88;;
22250;SDS011;59348;52.158;5.588;2023-03-01T04:50:17;9.00;;;6.40;;
22250;SDS011;59348;52.158;5.588;2023-03-01T04:52:46;11.40;;;7.13;;
22250;SDS011;59348;52.158;5.588;2023-03-01T04:55:14;11.90;;;7.10;;
22250;SDS011;59348;52.158;5.588;2023-03-01T04:57:42;10.65;;;6.63;;
22250;SDS011;59348;52.158;5.588;2023-03-01T05:00:10;9.82;;;7.03;;
22250;SDS011;59348;52.158;5.588;2023-03-01T05:02:49;10.98;;;6.80;;
22250;SDS011;59348;52.158;5.588;2023-03-01T05:05:20;10.18;;;6.22;;
22250;SDS011;59348;52.158;5.588;2023-03-01T05:07:50;11.02;;;6.80;;
22250;SDS011;59348;52.158;5.588;2023-03-01T05:10:18;8.82;;;6.22;;
22250;SDS011;59348;52.158;5.588;2023-03-01T05:12:45;8.65;;;5.88;;
22250;SDS011;59348;52.158;5.588;2023-03-01T05:15:13;10.00;;;6.45;;
22250;SDS011;59348;52.158;5.588;2023-03-01T05:17:40;11.13;;;6.30;;
22250;SDS011;59348;52.158;5.588;2023-03-01T05:20:09;13.60;;;7.32;;
22250;SDS011;59348;52.158;5.588;2023-03-01T05:22:36;10.00;;;6.68;;
22250;SDS011;59348;52.158;5.588;2023-03-01T05:25:04;11.85;;;7.55;;
22250;SDS011;59348;52.158;5.588;2023-03-01T05:27:33;13.27;;;7.10;;
22250;SDS011;59348;52.158;5.588;2023-03-01T05:30:00;11.13;;;7.35;;
22250;SDS011;59348;52.158;5.588;2023-03-01T05:32:38;10.43;;;7.10;;
22250;SDS011;59348;52.158;5.588;2023-03-01T05:35:06;13.75;;;7.63;;
22250;SDS011;59348;52.158;5.588;2023-03-01T05:37:34;10.93;;;7.13;;
22250;SDS011;59348;52.158;5.588;2023-03-01T05:40:02;11.02;;;6.97;;
22250;SDS011;59348;52.158;5.588;2023-03-01T05:42:30;10.50;;;6.80;;
22250;SDS011;59348;52.158;5.588;2023-03-01T05:44:57;11.32;;;6.65;;
22250;SDS011;59348;52.158;5.588;2023-03-01T05:47:25;12.10;;;6.80;;
22250;SDS011;59348;52.158;5.588;2023-03-01T05:49:52;11.10;;;6.63;;
22250;SDS011;59348;52.158;5.588;2023-03-01T05:52:20;11.40;;;7.28;;
22250;SDS011;59348;52.158;5.588;2023-03-01T05:54:48;11.95;;;6.75;;
22250;SDS011;59348;52.158;5.588;2023-03-01T05:57:15;8.85;;;6.68;;
22250;SDS011;59348;52.158;5.588;2023-03-01T05:59:43;12.10;;;7.40;;
22250;SDS011;59348;52.158;5.588;2023-03-01T06:02:10;10.75;;;7.15;;
22250;SDS011;59348;52.158;5.588;2023-03-01T06:04:37;15.43;;;7.80;;
22250;SDS011;59348;52.158;5.588;2023-03-01T06:07:04;11.57;;;6.93;;
22250;SDS011;59348;52.158;5.588;2023-03-01T06:09:32;11.35;;;7.13;;
22250;SDS011;59348;52.158;5.588;2023-03-01T06:12:00;11.35;;;7.07;;
22250;SDS011;59348;52.158;5.588;2023-03-01T06:14:28;11.75;;;7.32;;
22250;SDS011;59348;52.158;5.588;2023-03-01T06:16:55;11.05;;;6.80;;
22250;SDS011;59348;52.158;5.588;2023-03-01T06:19:22;12.02;;;6.85;;
22250;SDS011;59348;52.158;5.588;2023-03-01T06:21:49;12.57;;;7.32;;
22250;SDS011;59348;52.158;5.588;2023-03-01T06:24:17;11.63;;;7.22;;
22250;SDS011;59348;52.158;5.588;2023-03-01T06:26:44;13.75;;;7.65;;
22250;SDS011;59348;52.158;5.588;2023-03-01T06:29:12;10.55;;;7.10;;
22250;SDS011;59348;52.158;5.588;2023-03-01T06:31:40;12.55;;;7.65;;
22250;SDS011;59348;52.158;5.588;2023-03-01T06:34:08;13.18;;;7.50;;
22250;SDS011;59348;52.158;5.588;2023-03-01T06:36:38;9.45;;;6.90;;
22250;SDS011;59348;52.158;5.588;2023-03-01T06:39:05;13.98;;;7.57;;
22250;SDS011;59348;52.158;5.588;2023-03-01T06:41:33;11.80;;;6.82;;
22250;SDS011;59348;52.158;5.588;2023-03-01T06:44:00;11.70;;;7.47;;
22250;SDS011;59348;52.158;5.588;2023-03-01T06:46:29;12.65;;;7.18;;
22250;SDS011;59348;52.158;5.588;2023-03-01T06:48:56;12.25;;;7.47;;
22250;SDS011;59348;52.158;5.588;2023-03-01T06:51:23;11.13;;;6.97;;
22250;SDS011;59348;52.158;5.588;2023-03-01T06:53:50;11.63;;;7.07;;
22250;SDS011;59348;52.158;5.588;2023-03-01T06:56:18;16.40;;;7.75;;
22250;SDS011;59348;52.158;5.588;2023-03-01T06:58:45;11.80;;;7.75;;
22250;SDS011;59348;52.158;5.588;2023-03-01T07:01:12;11.52;;;7.90;;
22250;SDS011;59348;52.158;5.588;2023-03-01T07:03:41;16.88;;;8.07;;
22250;SDS011;59348;52.158;5.588;2023-03-01T07:06:09;15.35;;;7.75;;
22250;SDS011;59348;52.158;5.588;2023-03-01T07:08:36;12.95;;;8.23;;
22250;SDS011;59348;52.158;5.588;2023-03-01T07:11:04;12.60;;;8.05;;
22250;SDS011;59348;52.158;5.588;2023-03-01T07:13:32;16.17;;;8.63;;
22250;SDS011;59348;52.158;5.588;2023-03-01T07:15:59;17.35;;;8.93;;
22250;SDS011;59348;52.158;5.588;2023-03-01T07:18:27;18.23;;;9.20;;
22250;SDS011;59348;52.158;5.588;2023-03-01T07:20:56;14.00;;;9.27;;
22250;SDS011;59348;52.158;5.588;2023-03-01T07:23:23;14.80;;;8.70;;
22250;SDS011;59348;52.158;5.588;2023-03-01T07:25:51;17.45;;;9.10;;
22250;SDS011;59348;52.158;5.588;2023-03-01T07:28:19;16.73;;;8.75;;
22250;SDS011;59348;52.158;5.588;2023-03-01T07:30:46;15.02;;;8.82;;
22250;SDS011;59348;52.158;5.588;2023-03-01T07:33:13;14.50;;;8.55;;
22250;SDS011;59348;52.158;5.588;2023-03-01T07:35:41;15.68;;;9.63;;
22250;SDS011;59348;52.158;5.588;2023-03-01T07:38:09;14.98;;;9.25;;
22250;SDS011;59348;52.158;5.588;2023-03-01T07:40:37;13.85;;;9.68;;
22250;SDS011;59348;52.158;5.588;2023-03-01T07:43:04;15.18;;;9.15;;
22250;SDS011;59348;52.158;5.588;2023-03-01T07:45:31;14.18;;;9.38;;
22250;SDS011;59348;52.158;5.588;2023-03-01T07:47:58;17.27;;;9.52;;
22250;SDS011;59348;52.158;5.588;2023-03-01T07:50:26;23.23;;;10.52;;
22250;SDS011;59348;52.158;5.588;2023-03-01T07:52:53;15.60;;;9.30;;
22250;SDS011;59348;52.158;5.588;2023-03-01T07:55:22;16.00;;;9.75;;
22250;SDS011;59348;52.158;5.588;2023-03-01T07:57:49;26.10;;;10.27;;
22250;SDS011;59348;52.158;5.588;2023-03-01T08:00:17;18.95;;;9.15;;
22250;SDS011;59348;52.158;5.588;2023-03-01T08:02:44;17.05;;;9.27;;
22250;SDS011;59348;52.158;5.588;2023-03-01T08:05:11;15.30;;;9.68;;
22250;SDS011;59348;52.158;5.588;2023-03-01T08:07:38;18.35;;;9.55;;
22250;SDS011;59348;52.158;5.588;2023-03-01T08:10:06;21.95;;;9.43;;
22250;SDS011;59348;52.158;5.588;2023-03-01T08:12:35;17.73;;;9.27;;
22250;SDS011;59348;52.158;5.588;2023-03-01T08:15:02;13.75;;;8.27;;
22250;SDS011;59348;52.158;5.588;2023-03-01T08:17:29;16.10;;;8.70;;
22250;SDS011;59348;52.158;5.588;2023-03-01T08:19:57;13.15;;;8.20;;
22250;SDS011;59348;52.158;5.588;2023-03-01T08:22:24;13.85;;;8.43;;
22250;SDS011;59348;52.158;5.588;2023-03-01T08:24:51;13.63;;;8.38;;
22250;SDS011;59348;52.158;5.588;2023-03-01T08:27:20;11.27;;;8.00;;
22250;SDS011;59348;52.158;5.588;2023-03-01T08:29:49;12.93;;;7.90;;
22250;SDS011;59348;52.158;5.588;2023-03-01T08:32:16;14.82;;;8.38;;
22250;SDS011;59348;52.158;5.588;2023-03-01T08:34:45;16.55;;;8.40;;
22250;SDS011;59348;52.158;5.588;2023-03-01T08:37:13;14.93;;;8.38;;
22250;SDS011;59348;52.158;5.588;2023-03-01T08:39:40;15.07;;;8.40;;
22250;SDS011;59348;52.158;5.588;2023-03-01T08:42:07;13.30;;;8.60;;
22250;SDS011;59348;52.158;5.588;2023-03-01T08:44:34;11.35;;;7.28;;
22250;SDS011;59348;52.158;5.588;2023-03-01T08:47:03;12.90;;;6.72;;
22250;SDS011;59348;52.158;5.588;2023-03-01T08:49:30;12.75;;;6.93;;
22250;SDS011;59348;52.158;5.588;2023-03-01T08:51:58;11.80;;;6.85;;
22250;SDS011;59348;52.158;5.588;2023-03-01T08:54:26;12.85;;;6.65;;
22250;SDS011;59348;52.158;5.588;2023-03-01T08:56:53;10.65;;;6.53;;
22250;SDS011;59348;52.158;5.588;2023-03-01T08:59:21;11.18;;;6.70;;
22250;SDS011;59348;52.158;5.588;2023-03-01T09:01:48;9.75;;;6.30;;
22250;SDS011;59348;52.158;5.588;2023-03-01T09:04:16;12.95;;;6.43;;
22250;SDS011;59348;52.158;5.588;2023-03-01T09:06:44;12.45;;;6.47;;
22250;SDS011;59348;52.158;5.588;2023-03-01T09:09:12;11.57;;;6.22;;
22250;SDS011;59348;52.158;5.588;2023-03-01T09:11:41;14.75;;;6.60;;
22250;SDS011;59348;52.158;5.588;2023-03-01T09:14:08;9.32;;;5.78;;
22250;SDS011;59348;52.158;5.588;2023-03-01T09:16:36;11.63;;;6.10;;
22250;SDS011;59348;52.158;5.588;2023-03-01T09:19:03;10.10;;;5.80;;
22250;SDS011;59348;52.158;5.588;2023-03-01T09:21:32;9.15;;;5.50;;
22250;SDS011;59348;52.158;5.588;2023-03-01T09:23:59;8.35;;;5.40;;
22250;SDS011;59348;52.158;5.588;2023-03-01T09:26:26;11.20;;;5.78;;
22250;SDS011;59348;52.158;5.588;2023-03-01T09:28:54;8.93;;;5.50;;
22250;SDS011;59348;52.158;5.588;2023-03-01T09:31:22;9.38;;;5.60;;
22250;SDS011;59348;52.158;5.588;2023-03-01T09:33:50;10.40;;;5.53;;
22250;SDS011;59348;52.158;5.588;2023-03-01T09:36:18;9.43;;;4.93;;
22250;SDS011;59348;52.158;5.588;2023-03-01T09:38:47;6.75;;;4.70;;
22250;SDS011;59348;52.158;5.588;2023-03-01T09:41:19;10.30;;;5.38;;
22250;SDS011;59348;52.158;5.588;2023-03-01T09:43:51;8.95;;;4.90;;
22250;SDS011;59348;52.158;5.588;2023-03-01T09:46:20;8.48;;;4.97;;
22250;SDS011;59348;52.158;5.588;2023-03-01T09:48:49;9.23;;;4.65;;
22250;SDS011;59348;52.158;5.588;2023-03-01T09:51:19;7.30;;;4.82;;
22250;SDS011;59348;52.158;5.588;2023-03-01T09:53:51;6.70;;;4.63;;
22250;SDS011;59348;52.158;5.588;2023-03-01T09:56:21;10.02;;;4.68;;
22250;SDS011;59348;52.158;5.588;2023-03-01T09:58:53;7.40;;;5.10;;
22250;SDS011;59348;52.158;5.588;2023-03-01T10:01:26;8.07;;;4.15;;
22250;SDS011;59348;52.158;5.588;2023-03-01T10:04:00;7.65;;;3.67;;
22250;SDS011;59348;52.158;5.588;2023-03-01T10:06:31;9.07;;;4.30;;
22250;SDS011;59348;52.158;5.588;2023-03-01T10:09:00;5.07;;;3.65;;
22250;SDS011;59348;52.158;5.588;2023-03-01T10:11:30;5.00;;;3.22;;
22250;SDS011;59348;52.158;5.588;2023-03-01T10:13:59;5.68;;;3.30;;
22250;SDS011;59348;52.158;5.588;2023-03-01T10:16:38;4.05;;;3.00;;
22250;SDS011;59348;52.158;5.588;2023-03-01T10:19:09;3.80;;;2.92;;
22250;SDS011;59348;52.158;5.588;2023-03-01T10:21:40;7.32;;;2.85;;
22250;SDS011;59348;52.158;5.588;2023-03-01T10:24:12;4.28;;;2.97;;
22250;SDS011;59348;52.158;5.588;2023-03-01T10:26:43;4.15;;;2.88;;
22250;SDS011;59348;52.158;5.588;2023-03-01T10:29:12;3.97;;;2.90;;
22250;SDS011;59348;52.158;5.588;2023-03-01T10:31:41;5.80;;;3.65;;
22250;SDS011;59348;52.158;5.588;2023-03-01T10:34:11;11.23;;;3.20;;
22250;SDS011;59348;52.158;5.588;2023-03-01T10:36:39;4.97;;;2.95;;
